CA-0124 weather

CLOSED East Templeton Airport
Gatineau, Quebec, Canada

Public forecast

Using degrees Celsius for public forecast. Weather courtesy of forecast.io.

Closest aviation weather report (METAR) to East Templeton Airport

Report is more than 6 hours old.

Closest report is Ottawa / Gatineau Airport, 1.5 nm (2.8 km) NNW. Retrieved 2020/05/26 01:00 UTC (7 hours ago):

CYND 260100Z 06003KT 15SM BKN220 19/17 A3004 RMK CI6 LAST STFD OBS/NXT 261100Z SLP173 DENSITY ALT 600FT

Closest aviation forecast (TAF) to East Templeton Airport

Forecast is more than 12 hours old.

Closest forecast is Ottawa / Gatineau Airport, 1.5 nm (2.8 km) NNW. Retrieved 2020/05/25 18:00 UTC (14 hours ago):

TAF CYND 251744Z 2518/2601 21007KT P6SM OVC015 BECMG 2519/2521 BKN025 FM252200 21007KT P6SM SCT030 TEMPO 2522/2601 BKN030 RMK NXT FCST WILL BE ISSUED AT 261245Z